Time;durP1;ratioP1;P1;durP2;ratioP2;P2;SDS_P1;SDS_P2;PMS_P1;PMS_P2;Temp;Humidity;BMP_temperature;BMP_pressure;BME280_temperature;BME280_humidity;BME280_pressure;Samples;Min_cycle;Max_cycle;Signal;HPM_P1;HPM_P2
2023/01/05 00:01:29;;;;;;;6.95;2.42;;;21.80;54.70;;;;;;6085742;23;20020;-62
2023/01/05 00:03:58;;;;;;;7.43;2.72;;;21.80;54.70;;;;;;6084999;23;20335;-63
2023/01/05 00:06:24;;;;;;;7.28;2.67;;;21.80;54.70;;;;;;6086006;23;20041;-62
2023/01/05 00:08:50;;;;;;;6.38;2.45;;;21.70;54.70;;;;;;6086161;23;20018;-62
2023/01/05 00:22:31;;;;;;;6.43;2.78;;;21.70;54.90;;;;;;6082798;23;20053;-62
2023/01/05 00:25:08;;;;;;;5.87;2.30;;;21.70;55.10;;;;;;6084039;23;20471;-62
2023/01/05 00:27:34;;;;;;;7.45;2.92;;;21.60;55.20;;;;;;6085697;23;20011;-62
2023/01/05 00:30:00;;;;;;;7.93;2.83;;;21.60;55.30;;;;;;6060408;23;20129;-62
2023/01/05 00:32:26;;;;;;;5.70;2.45;;;21.60;55.50;;;;;;6083857;23;20053;-62
2023/01/05 00:34:56;;;;;;;6.47;2.50;;;21.60;55.70;;;;;;6085856;23;20046;-62
2023/01/05 00:37:29;;;;;;;7.13;2.30;;;21.60;55.60;;;;;;6085522;23;20026;-63
2023/01/05 00:39:55;;;;;;;8.30;3.20;;;21.60;55.50;;;;;;6085992;23;20037;-63
2023/01/05 00:42:21;;;;;;;8.27;2.65;;;21.60;55.30;;;;;;6085210;23;20711;-63
2023/01/05 00:44:46;;;;;;;6.63;2.53;;;21.60;55.10;;;;;;6086500;23;20025;-61
2023/01/05 00:47:12;;;;;;;7.63;2.65;;;21.50;54.90;;;;;;6085490;23;20022;-63
2023/01/05 00:49:38;;;;;;;5.00;2.20;;;21.60;55.00;;;;;;6084089;23;20340;-62
2023/01/05 00:52:04;;;;;;;6.15;2.28;;;21.60;55.10;;;;;;6083681;23;20022;-62
2023/01/05 00:54:30;;;;;;;7.03;2.83;;;21.50;55.10;;;;;;6083913;23;20046;-62
2023/01/05 00:56:56;;;;;;;7.25;2.88;;;21.50;55.10;;;;;;6085659;23;20435;-61
2023/01/05 00:59:22;;;;;;;5.22;2.20;;;21.50;54.90;;;;;;6059987;23;20014;-63
2023/01/05 01:01:49;;;;;;;5.65;2.47;;;21.50;54.90;;;;;;6086740;23;20006;-62
2023/01/05 01:04:15;;;;;;;8.00;3.05;;;21.50;54.80;;;;;;6087520;23;20065;-61
2023/01/05 01:06:41;;;;;;;6.45;2.50;;;21.50;54.80;;;;;;6086251;23;20014;-62
2023/01/05 01:09:07;;;;;;;7.03;2.95;;;21.50;54.60;;;;;;6085944;23;20089;-62
2023/01/05 01:11:33;;;;;;;7.40;2.92;;;21.40;54.50;;;;;;6086338;23;20025;-62
2023/01/05 01:13:59;;;;;;;6.75;2.40;;;21.40;54.40;;;;;;6085769;23;20582;-62
2023/01/05 01:16:25;;;;;;;7.93;2.88;;;21.40;54.40;;;;;;6084913;23;20089;-62
2023/01/05 01:18:50;;;;;;;6.43;2.53;;;21.40;54.50;;;;;;6085879;23;20023;-62
2023/01/05 01:21:16;;;;;;;5.55;2.45;;;21.40;54.60;;;;;;6088699;23;20014;-61
2023/01/05 01:23:42;;;;;;;6.93;2.45;;;21.40;54.50;;;;;;6089014;23;20014;-62
2023/01/05 01:26:11;;;;;;;7.53;2.92;;;21.40;54.40;;;;;;6063219;23;20073;-62
2023/01/05 01:28:37;;;;;;;4.88;2.17;;;21.40;54.40;;;;;;6086941;23;20375;-62
2023/01/05 01:31:03;;;;;;;8.02;2.88;;;21.40;54.40;;;;;;6089212;23;20010;-62
2023/01/05 01:33:29;;;;;;;10.30;2.72;;;21.30;54.30;;;;;;6088865;23;20037;-64
2023/01/05 01:35:55;;;;;;;8.57;2.67;;;21.30;54.20;;;;;;6089070;23;20494;-63
2023/01/05 01:38:21;;;;;;;6.00;2.65;;;21.30;54.10;;;;;;6088704;23;20099;-64
2023/01/05 01:40:47;;;;;;;7.97;2.47;;;21.30;54.00;;;;;;6088320;23;20317;-61
2023/01/05 01:43:19;;;;;;;7.65;2.80;;;21.30;54.00;;;;;;6089257;23;20019;-62
2023/01/05 01:45:45;;;;;;;6.35;2.72;;;21.30;54.00;;;;;;6088875;23;20098;-62
2023/01/05 01:48:16;;;;;;;6.38;2.38;;;21.30;54.00;;;;;;6086352;23;20054;-63
2023/01/05 01:50:53;;;;;;;7.57;3.22;;;21.30;54.00;;;;;;6088778;23;20014;-61
2023/01/05 01:53:34;;;;;;;8.48;2.75;;;21.20;53.90;;;;;;6086453;23;20487;-64
2023/01/05 01:56:02;;;;;;;7.03;2.45;;;21.20;54.00;;;;;;6087027;23;20023;-61
2023/01/05 01:58:30;;;;;;;7.72;2.65;;;21.20;54.00;;;;;;6086368;23;20014;-61
2023/01/05 02:00:59;;;;;;;7.22;2.50;;;21.20;54.10;;;;;;6088596;23;20011;-61
2023/01/05 02:03:26;;;;;;;7.18;2.75;;;21.20;54.20;;;;;;6086602;23;20014;-62
2023/01/05 02:05:53;;;;;;;7.03;2.35;;;21.20;54.10;;;;;;6086718;23;20018;-62
2023/01/05 02:08:24;;;;;;;7.63;3.35;;;21.20;54.20;;;;;;6088126;23;20025;-62
2023/01/05 02:11:08;;;;;;;;;;;21.20;54.20;;;;;;6086882;23;20490;-61
2023/01/05 02:13:34;;;;;;;8.38;2.95;;;21.10;54.10;;;;;;6087788;23;20293;-62
2023/01/05 02:16:04;;;;;;;7.88;2.90;;;21.10;54.30;;;;;;6087839;23;20025;-62
2023/01/05 02:19:07;;;;;;;6.22;2.58;;;21.10;54.30;;;;;;6088009;23;20018;-62
2023/01/05 02:21:50;;;;;;;5.70;2.70;;;21.10;54.20;;;;;;6087897;23;20015;-61
2023/01/05 02:24:46;;;;;;;6.60;2.67;;;21.10;54.20;;;;;;6089486;23;20022;-62
2023/01/05 02:27:20;;;;;;;7.93;2.78;;;21.10;54.20;;;;;;6087246;23;20070;-61
2023/01/05 02:30:04;;;;;;;7.25;2.92;;;21.10;54.30;;;;;;6088592;23;20106;-61
2023/01/05 02:32:40;;;;;;;7.90;2.42;;;21.10;54.30;;;;;;6087836;23;20053;-61
2023/01/05 02:35:09;;;;;;;6.15;2.40;;;21.00;54.20;;;;;;6087971;23;20374;-62
2023/01/05 02:37:40;;;;;;;7.05;2.47;;;21.00;54.20;;;;;;6087625;23;20161;-63
2023/01/05 02:40:23;;;;;;;6.50;2.45;;;21.00;54.30;;;;;;6087601;23;20451;-62
2023/01/05 02:42:52;;;;;;;6.15;2.58;;;21.00;54.30;;;;;;6088096;23;20058;-62
2023/01/05 02:45:20;;;;;;;6.95;2.60;;;21.00;54.30;;;;;;6088290;23;20050;-62
2023/01/05 02:47:46;;;;;;;7.03;2.03;;;21.00;54.30;;;;;;6085505;23;20077;-63
2023/01/05 02:50:42;;;;;;;7.40;2.65;;;21.00;54.20;;;;;;6087787;23;20061;-62
2023/01/05 02:53:18;;;;;;;7.60;2.38;;;21.00;54.10;;;;;;6080621;23;20076;-61
2023/01/05 02:55:51;;;;;;;7.05;2.33;;;21.00;54.30;;;;;;6087195;23;20030;-63
2023/01/05 02:58:30;;;;;;;7.28;2.70;;;20.90;54.20;;;;;;6087142;23;20014;-62
2023/01/05 03:01:27;;;;;;;6.88;2.28;;;21.00;54.30;;;;;;6088216;23;20015;-62
2023/01/05 03:03:59;;;;;;;6.75;2.58;;;20.90;54.20;;;;;;6086947;23;20455;-62
2023/01/05 03:06:45;;;;;;;7.53;2.30;;;20.90;54.20;;;;;;6085732;23;20022;-61
2023/01/05 03:09:18;;;;;;;6.38;2.78;;;20.90;54.20;;;;;;6087755;23;20029;-61
2023/01/05 03:14:51;;;;;;;4.82;1.92;;;20.90;54.20;;;;;;6087493;23;20053;-63
2023/01/05 03:17:25;;;;;;;7.03;2.50;;;20.90;54.20;;;;;;6087793;23;20046;-61
2023/01/05 03:19:52;;;;;;;7.32;2.80;;;20.80;54.10;;;;;;6086100;23;20010;-61
2023/01/05 03:37:02;;;;;;;5.90;2.22;;;20.80;54.00;;;;;;6084219;23;20026;-64
2023/01/05 03:39:30;;;;;;;6.93;2.58;;;20.80;54.10;;;;;;6085642;23;20025;-62
2023/01/05 03:41:57;;;;;;;5.93;2.22;;;20.80;54.10;;;;;;6085752;23;20068;-62
2023/01/05 03:44:23;;;;;;;6.47;2.13;;;20.70;54.00;;;;;;6087013;23;20379;-62
2023/01/05 03:46:50;;;;;;;5.55;2.38;;;20.70;53.90;;;;;;6086538;23;20022;-62
2023/01/05 03:49:16;;;;;;;4.35;2.15;;;20.70;53.90;;;;;;6084634;23;20493;-63
2023/01/05 03:51:42;;;;;;;5.90;2.47;;;20.70;53.90;;;;;;6085140;23;20082;-62
2023/01/05 03:54:08;;;;;;;6.53;2.35;;;20.80;53.90;;;;;;6087002;23;20459;-63
2023/01/05 03:56:34;;;;;;;5.88;2.10;;;20.70;53.90;;;;;;6085838;23;20494;-62
2023/01/05 03:58:59;;;;;;;8.35;2.47;;;20.70;53.90;;;;;;6085576;23;20018;-62
2023/01/05 04:01:25;;;;;;;5.80;2.65;;;20.70;54.00;;;;;;6085089;23;20014;-63
2023/01/05 04:03:51;;;;;;;6.50;2.22;;;20.70;54.00;;;;;;6087808;23;20335;-63
2023/01/05 04:06:16;;;;;;;5.93;2.20;;;20.70;54.00;;;;;;6085541;23;20014;-63
2023/01/05 04:08:42;;;;;;;6.00;2.15;;;20.70;54.10;;;;;;6085869;23;20802;-63
2023/01/05 04:11:17;;;;;;;4.90;2.00;;;20.70;54.10;;;;;;6085859;23;20022;-61
2023/01/05 04:13:43;;;;;;;6.00;2.05;;;20.70;54.10;;;;;;6085273;23;20022;-62
2023/01/05 04:16:09;;;;;;;6.32;2.42;;;20.70;54.00;;;;;;6086831;23;20078;-62
2023/01/05 04:18:34;;;;;;;5.35;2.22;;;20.70;54.00;;;;;;6083592;23;20026;-63
2023/01/05 04:21:00;;;;;;;6.32;2.30;;;20.70;54.00;;;;;;6084192;23;20288;-62
2023/01/05 04:23:26;;;;;;;6.80;2.50;;;20.70;54.10;;;;;;6084518;23;20017;-63
2023/01/05 04:25:52;;;;;;;6.93;2.58;;;20.60;54.00;;;;;;6086549;23;20025;-61
2023/01/05 04:28:17;;;;;;;6.80;2.08;;;20.60;53.90;;;;;;6085410;23;20447;-61
2023/01/05 04:30:44;;;;;;;4.95;1.90;;;20.60;53.90;;;;;;6086733;23;20022;-61
2023/01/05 04:33:10;;;;;;;6.80;2.30;;;20.60;53.90;;;;;;6060270;23;20327;-61
2023/01/05 04:35:35;;;;;;;5.82;2.17;;;20.60;53.90;;;;;;6084931;23;20452;-61
2023/01/05 04:38:01;;;;;;;6.25;2.20;;;20.60;53.90;;;;;;6085903;23;20019;-63
2023/01/05 04:40:27;;;;;;;7.18;2.20;;;20.60;53.90;;;;;;6086196;23;20023;-62
2023/01/05 04:42:53;;;;;;;6.93;2.17;;;20.60;53.90;;;;;;6085629;23;20030;-62
2023/01/05 04:45:18;;;;;;;5.88;2.67;;;20.60;53.90;;;;;;6086979;23;20014;-62
2023/01/05 04:47:44;;;;;;;5.78;2.13;;;20.60;53.90;;;;;;6084773;23;20053;-62
2023/01/05 04:50:10;;;;;;;6.65;2.38;;;20.60;54.00;;;;;;6084949;23;20029;-61
2023/01/05 04:52:36;;;;;;;7.15;2.60;;;20.60;53.90;;;;;;6086656;23;20026;-62
2023/01/05 04:55:03;;;;;;;6.47;2.10;;;20.60;53.90;;;;;;6084432;23;20031;-62
2023/01/05 04:57:28;;;;;;;6.13;2.03;;;20.50;53.80;;;;;;6086135;23;20015;-62
2023/01/05 04:59:54;;;;;;;4.63;2.20;;;20.50;53.80;;;;;;6086007;23;20454;-61
2023/01/05 05:02:20;;;;;;;5.10;2.03;;;20.50;53.90;;;;;;6084065;23;20414;-60
2023/01/05 05:04:46;;;;;;;7.47;2.85;;;20.50;54.60;;;;;;6084616;23;20014;-62
2023/01/05 05:07:12;;;;;;;6.65;2.08;;;20.50;54.00;;;;;;6083713;23;20451;-62
2023/01/05 05:09:38;;;;;;;5.93;2.38;;;20.50;54.50;;;;;;6085261;23;20019;-62
2023/01/05 05:12:03;;;;;;;4.90;2.00;;;20.50;53.80;;;;;;6086423;23;20455;-62
2023/01/05 05:14:29;;;;;;;5.95;2.17;;;20.50;53.90;;;;;;6084487;23;20018;-61
2023/01/05 05:16:55;;;;;;;7.70;2.58;;;20.50;53.90;;;;;;6086246;23;20021;-63
2023/01/05 05:19:20;;;;;;;8.02;2.22;;;20.50;53.80;;;;;;6086522;23;20402;-63
2023/01/05 05:21:46;;;;;;;3.92;1.67;;;20.50;53.90;;;;;;6085624;23;20014;-62
2023/01/05 05:24:12;;;;;;;5.30;2.10;;;20.50;53.90;;;;;;6086416;23;20113;-64
2023/01/05 05:26:37;;;;;;;5.07;2.05;;;20.50;53.90;;;;;;6085961;23;20017;-68
2023/01/05 05:29:04;;;;;;;6.88;2.58;;;20.50;53.80;;;;;;6085309;23;20021;-65
2023/01/05 05:31:29;;;;;;;5.80;2.47;;;20.50;53.80;;;;;;6084490;23;20104;-65
2023/01/05 05:33:55;;;;;;;6.13;2.25;;;20.40;53.90;;;;;;6085924;23;20510;-63
2023/01/05 05:36:21;;;;;;;5.90;1.90;;;20.50;53.80;;;;;;6083929;23;20046;-64
2023/01/05 05:38:47;;;;;;;5.25;2.35;;;20.40;53.70;;;;;;6084054;23;20029;-62
2023/01/05 05:41:12;;;;;;;7.20;2.35;;;20.40;53.80;;;;;;6083542;23;20259;-62
2023/01/05 05:43:38;;;;;;;5.70;2.15;;;20.40;53.90;;;;;;6059666;23;20023;-61
2023/01/05 05:46:04;;;;;;;3.65;1.67;;;20.40;53.90;;;;;;6083230;23;20022;-62
2023/01/05 05:48:29;;;;;;;6.03;2.22;;;20.40;54.00;;;;;;6086050;23;20336;-61
2023/01/05 05:50:55;;;;;;;5.90;2.30;;;20.40;53.90;;;;;;6060413;23;20022;-62
2023/01/05 05:53:21;;;;;;;5.38;2.25;;;20.40;53.80;;;;;;6059803;23;20409;-62
2023/01/05 05:55:50;;;;;;;5.68;2.15;;;20.40;53.80;;;;;;6084445;23;20359;-62
2023/01/05 05:58:19;;;;;;;4.75;1.98;;;20.40;53.70;;;;;;6085088;23;20019;-62
2023/01/05 06:00:45;;;;;;;6.38;2.45;;;20.40;53.70;;;;;;6083945;23;20018;-62
2023/01/05 06:03:11;;;;;;;6.28;2.03;;;20.40;53.70;;;;;;6085586;23;20022;-61
2023/01/05 06:05:37;;;;;;;8.38;2.35;;;20.40;53.70;;;;;;6085140;23;20014;-61
2023/01/05 06:08:02;;;;;;;5.03;2.10;;;20.40;53.70;;;;;;6084495;23;20523;-61
2023/01/05 06:10:28;;;;;;;4.65;1.80;;;20.40;53.80;;;;;;6086815;23;20090;-61
2023/01/05 06:12:54;;;;;;;5.00;2.22;;;20.40;53.80;;;;;;6084061;23;20418;-61
2023/01/05 06:15:23;;;;;;;4.95;1.92;;;20.40;53.70;;;;;;6084919;23;20157;-61
2023/01/05 06:17:49;;;;;;;4.82;2.20;;;20.40;53.80;;;;;;6085339;23;20347;-61
2023/01/05 06:20:16;;;;;;;6.60;2.17;;;20.40;53.80;;;;;;6085694;23;20014;-63
2023/01/05 06:22:42;;;;;;;5.88;2.15;;;20.40;53.80;;;;;;6085247;23;20022;-62
2023/01/05 06:25:09;;;;;;;7.03;2.58;;;20.40;53.80;;;;;;6086421;23;20015;-62
2023/01/05 06:27:35;;;;;;;5.43;1.90;;;20.40;53.80;;;;;;6087049;23;20029;-62
2023/01/05 06:30:01;;;;;;;4.78;1.90;;;20.40;53.80;;;;;;6087191;23;20097;-62
2023/01/05 06:32:26;;;;;;;7.43;2.22;;;20.40;54.00;;;;;;6085102;23;20053;-62
2023/01/05 06:34:52;;;;;;;6.63;2.17;;;20.40;54.00;;;;;;6087621;23;20113;-62
2023/01/05 06:37:18;;;;;;;5.88;1.85;;;20.40;54.00;;;;;;6087474;23;20525;-64
2023/01/05 06:39:43;;;;;;;8.95;2.35;;;20.40;54.00;;;;;;6086929;23;20388;-63
2023/01/05 06:42:09;;;;;;;10.38;2.58;;;20.30;53.80;;;;;;6086050;23;20033;-62
2023/01/05 06:44:35;;;;;;;6.88;2.17;;;20.30;53.90;;;;;;6086942;23;20015;-60
2023/01/05 06:47:01;;;;;;;9.70;2.45;;;20.30;53.80;;;;;;6087104;23;20283;-62
2023/01/05 06:49:26;;;;;;;7.03;2.00;;;20.30;53.80;;;;;;6087153;23;20179;-64
2023/01/05 06:51:52;;;;;;;6.70;2.35;;;20.30;53.70;;;;;;6086482;23;20072;-62
2023/01/05 06:54:18;;;;;;;6.72;2.50;;;20.30;53.70;;;;;;6087056;23;20023;-62
2023/01/05 06:56:43;;;;;;;7.53;2.50;;;20.30;53.70;;;;;;6037565;23;20041;-61
2023/01/05 06:59:12;;;;;;;9.05;2.42;;;20.30;53.70;;;;;;6085091;23;20025;-61
2023/01/05 07:01:38;;;;;;;7.15;2.20;;;20.30;53.60;;;;;;6086369;23;20021;-62
2023/01/05 07:04:04;;;;;;;8.05;1.85;;;20.30;53.80;;;;;;6085754;23;20014;-61
2023/01/05 07:06:30;;;;;;;6.43;1.65;;;20.80;53.50;;;;;;6087097;23;20385;-62
2023/01/05 07:08:55;;;;;;;5.88;1.98;;;21.50;52.20;;;;;;6084928;23;20388;-62
2023/01/05 07:11:21;;;;;;;8.25;2.10;;;22.20;50.70;;;;;;6085722;23;20029;-62
2023/01/05 07:13:48;;;;;;;5.82;1.80;;;22.90;49.60;;;;;;6084449;23;20276;-62
2023/01/05 07:16:14;;;;;;;7.30;1.90;;;23.30;48.50;;;;;;6082597;23;20018;-63
2023/01/05 07:18:40;;;;;;;6.43;2.05;;;23.50;48.00;;;;;;6084161;23;20022;-61
2023/01/05 07:21:05;;;;;;;6.00;1.80;;;23.50;47.80;;;;;;6082014;23;20606;-63
2023/01/05 07:23:31;;;;;;;7.18;1.90;;;23.60;47.80;;;;;;6082999;23;20098;-63
2023/01/05 07:26:00;;;;;;;5.10;1.92;;;23.50;47.90;;;;;;6083723;23;20085;-62
2023/01/05 07:28:26;;;;;;;4.63;2.20;;;23.50;48.00;;;;;;6084975;23;20014;-62
2023/01/05 07:30:52;;;;;;;4.75;1.98;;;23.40;48.10;;;;;;6083387;23;20347;-63
2023/01/05 07:33:18;;;;;;;5.47;1.98;;;23.30;48.20;;;;;;6083448;23;20025;-62
2023/01/05 07:35:43;;;;;;;3.50;1.73;;;23.20;48.60;;;;;;6085134;23;20011;-62
2023/01/05 07:38:09;;;;;;;4.97;1.95;;;23.00;48.90;;;;;;6085136;23;20053;-63
2023/01/05 07:40:35;;;;;;;7.43;2.45;;;22.90;49.10;;;;;;6085109;23;20030;-61
2023/01/05 07:43:00;;;;;;;7.05;2.50;;;22.90;49.40;;;;;;6084991;23;20051;-61
2023/01/05 07:45:26;;;;;;;6.13;2.15;;;22.80;49.60;;;;;;6084877;23;20018;-63
2023/01/05 07:47:52;;;;;;;7.93;2.45;;;22.70;49.60;;;;;;6083913;23;20014;-61
2023/01/05 07:50:17;;;;;;;7.35;2.10;;;22.70;49.70;;;;;;6083398;23;20057;-61
2023/01/05 07:52:43;;;;;;;5.72;2.03;;;22.70;49.80;;;;;;6082562;23;20063;-60
2023/01/05 07:55:09;;;;;;;3.95;1.70;;;22.70;49.90;;;;;;6082771;23;20085;-61
2023/01/05 07:57:35;;;;;;;5.28;2.00;;;22.70;49.90;;;;;;6085055;23;20121;-59
2023/01/05 08:00:01;;;;;;;4.25;1.98;;;22.70;49.80;;;;;;6086730;23;20022;-61
2023/01/05 08:02:26;;;;;;;5.07;1.90;;;22.70;49.70;;;;;;6084207;23;20018;-62
2023/01/05 08:04:52;;;;;;;4.00;1.63;;;22.70;50.40;;;;;;6084358;23;20123;-61
2023/01/05 08:07:18;;;;;;;4.68;1.95;;;22.60;49.70;;;;;;6084771;23;20022;-61
2023/01/05 08:12:29;;;;;;;4.75;1.90;;;22.60;49.70;;;;;;6086765;23;20022;-61
2023/01/05 08:14:55;;;;;;;6.57;2.30;;;22.60;49.60;;;;;;6084777;23;20022;-60
2023/01/05 08:17:21;;;;;;;4.07;1.88;;;22.70;49.60;;;;;;6086150;23;20018;-62
2023/01/05 08:19:46;;;;;;;6.47;2.10;;;22.70;49.40;;;;;;6086731;23;20395;-66
2023/01/05 08:22:12;;;;;;;7.53;2.47;;;22.70;49.40;;;;;;6083526;23;20443;-61
2023/01/05 08:24:38;;;;;;;10.68;2.30;;;22.70;49.40;;;;;;6084714;23;20072;-61
2023/01/05 08:27:03;;;;;;;4.82;2.10;;;22.70;49.50;;;;;;6083684;23;20332;-61
2023/01/05 08:29:29;;;;;;;5.53;2.38;;;22.80;49.60;;;;;;6084213;23;20332;-63
2023/01/05 08:31:55;;;;;;;6.10;2.38;;;22.80;49.50;;;;;;6082700;23;20387;-63
2023/01/05 08:34:21;;;;;;;5.55;2.28;;;22.70;49.40;;;;;;6083142;23;20040;-61
2023/01/05 08:36:46;;;;;;;6.25;2.25;;;22.70;49.40;;;;;;6081957;23;20094;-62
2023/01/05 08:39:12;;;;;;;9.57;2.15;;;22.80;49.50;;;;;;6084513;23;20060;-62
2023/01/05 08:41:39;;;;;;;7.80;2.05;;;22.70;49.40;;;;;;6085014;23;20085;-60
2023/01/05 08:44:09;;;;;;;4.80;1.92;;;22.80;49.50;;;;;;6085638;23;20375;-61
2023/01/05 08:46:35;;;;;;;6.20;1.80;;;22.80;49.50;;;;;;6084804;23;20450;-61
2023/01/05 08:49:04;;;;;;;6.47;2.08;;;22.80;49.40;;;;;;6085057;23;20362;-61
2023/01/05 08:51:30;;;;;;;4.63;2.22;;;22.80;49.40;;;;;;6085791;23;20021;-60
2023/01/05 08:53:57;;;;;;;5.95;2.00;;;22.70;49.30;;;;;;6085256;23;20635;-62
2023/01/05 08:56:26;;;;;;;6.13;2.40;;;22.80;49.30;;;;;;6086269;23;20014;-63
2023/01/05 08:58:54;;;;;;;5.22;1.92;;;22.70;49.20;;;;;;6085158;23;20105;-62
2023/01/05 09:01:20;;;;;;;5.28;1.90;;;22.80;49.10;;;;;;6084607;23;20011;-61
2023/01/05 09:03:47;;;;;;;5.93;1.80;;;22.80;49.10;;;;;;6060564;23;20014;-61
2023/01/05 09:06:13;;;;;;;4.72;2.00;;;22.80;49.00;;;;;;6086163;23;20026;-61
2023/01/05 09:08:43;;;;;;;6.15;2.42;;;22.80;49.00;;;;;;6084286;23;20022;-61
2023/01/05 09:11:13;;;;;;;6.88;2.40;;;22.80;49.00;;;;;;6086486;23;20368;-62
2023/01/05 09:13:39;;;;;;;6.25;2.33;;;22.80;48.90;;;;;;6084984;23;20347;-62
2023/01/05 09:16:10;;;;;;;6.25;2.05;;;22.70;48.80;;;;;;6086509;23;20026;-61
2023/01/05 09:18:37;;;;;;;5.63;2.30;;;22.80;48.90;;;;;;6083810;23;20064;-61
2023/01/05 09:21:04;;;;;;;4.50;2.00;;;22.80;48.80;;;;;;6084632;23;20021;-62
2023/01/05 09:23:31;;;;;;;5.75;2.03;;;22.80;48.80;;;;;;6084430;23;20018;-61
2023/01/05 09:25:56;;;;;;;5.90;2.00;;;22.80;48.80;;;;;;6086384;23;20014;-62
2023/01/05 09:28:22;;;;;;;5.10;2.35;;;22.80;48.70;;;;;;6083767;23;20029;-62
2023/01/05 09:30:48;;;;;;;3.83;2.10;;;22.80;48.60;;;;;;6084636;23;20029;-61
2023/01/05 09:33:13;;;;;;;5.43;1.90;;;22.80;48.60;;;;;;6084299;23;20014;-61
2023/01/05 09:35:39;;;;;;;4.93;2.03;;;22.70;48.50;;;;;;6060952;23;20097;-62
2023/01/05 09:38:05;;;;;;;5.00;2.05;;;22.80;48.50;;;;;;6085582;23;20504;-62
2023/01/05 09:40:37;;;;;;;4.57;2.20;;;22.70;48.40;;;;;;6087470;23;20014;-60
2023/01/05 09:43:03;;;;;;;7.05;2.30;;;22.80;48.40;;;;;;6087709;23;20486;-61
2023/01/05 09:45:29;;;;;;;4.97;2.00;;;22.80;48.40;;;;;;6088526;23;20017;-61
2023/01/05 09:47:58;;;;;;;5.28;2.10;;;22.80;48.40;;;;;;6062294;23;20320;-61
2023/01/05 09:50:26;;;;;;;6.28;2.13;;;22.80;48.30;;;;;;6085727;23;20018;-61
2023/01/05 09:52:56;;;;;;;6.68;2.28;;;22.80;48.20;;;;;;6088537;23;20025;-62
2023/01/05 09:55:26;;;;;;;4.17;2.03;;;22.80;48.20;;;;;;6088075;23;20022;-61
2023/01/05 09:57:59;;;;;;;6.45;2.55;;;22.80;48.20;;;;;;6085854;23;20033;-62
2023/01/05 10:00:27;;;;;;;4.80;1.92;;;22.80;48.10;;;;;;6087893;23;20014;-61
2023/01/05 10:02:58;;;;;;;5.38;2.22;;;22.80;48.10;;;;;;6085925;23;20065;-62
2023/01/05 10:05:24;;;;;;;;;;;22.80;48.10;;;;;;6086801;23;20042;-60
2023/01/05 10:08:01;;;;;;;3.85;1.80;;;22.80;47.90;;;;;;6088128;23;19960;-63
2023/01/05 10:10:43;;;;;;;5.15;2.60;;;22.80;48.20;;;;;;6087788;23;20018;-60
2023/01/05 10:13:22;;;;;;;4.45;1.92;;;22.80;48.00;;;;;;6087959;23;20018;-61
2023/01/05 10:15:51;;;;;;;5.22;1.95;;;22.80;48.00;;;;;;6087338;23;20077;-60
2023/01/05 10:18:22;;;;;;;5.50;2.40;;;22.70;48.00;;;;;;6087450;23;20089;-62
2023/01/05 10:20:57;;;;;;;4.85;1.88;;;22.80;48.00;;;;;;6062511;23;20025;-61
2023/01/05 10:23:43;;;;;;;3.67;1.92;;;22.80;47.90;;;;;;6087671;23;20025;-62
2023/01/05 10:26:30;;;;;;;5.57;2.28;;;22.80;48.50;;;;;;6088221;23;20011;-60
2023/01/05 10:29:08;;;;;;;4.80;2.05;;;22.80;47.80;;;;;;6088335;23;20010;-61
2023/01/05 10:31:47;;;;;;;5.63;1.90;;;22.80;47.90;;;;;;6087295;23;20025;-61
2023/01/05 10:34:23;;;;;;;4.35;2.08;;;22.80;47.70;;;;;;6088347;23;20014;-61
2023/01/05 10:37:23;;;;;;;5.72;2.42;;;22.80;47.70;;;;;;6086172;23;20022;-62
2023/01/05 10:40:07;;;;;;;5.00;1.85;;;22.80;47.60;;;;;;6086227;23;20033;-63
2023/01/05 10:43:04;;;;;;;6.72;2.83;;;22.80;47.80;;;;;;6085779;23;20113;-62
2023/01/05 10:45:30;;;;;;;6.20;2.30;;;22.80;47.60;;;;;;6052075;23;20081;-59
2023/01/05 10:47:58;;;;;;;6.93;2.45;;;22.80;47.70;;;;;;6085738;23;20459;-61
2023/01/05 10:50:36;;;;;;;6.85;2.30;;;22.80;47.60;;;;;;6086136;23;20025;-63
2023/01/05 10:53:21;;;;;;;4.95;2.20;;;22.80;47.60;;;;;;6087761;23;20465;-62
2023/01/05 10:55:56;;;;;;;4.18;2.03;;;22.80;47.50;;;;;;6087035;23;20019;-62
2023/01/05 10:58:24;;;;;;;6.15;2.50;;;22.80;47.40;;;;;;6087371;23;20049;-62
2023/01/05 11:00:53;;;;;;;4.15;2.15;;;22.80;47.50;;;;;;6087591;23;20074;-63
2023/01/05 11:03:27;;;;;;;6.18;2.17;;;22.80;47.50;;;;;;6086803;23;20074;-62
2023/01/05 11:05:53;;;;;;;5.53;2.28;;;22.90;47.40;;;;;;6061705;23;20029;-62
2023/01/05 11:08:21;;;;;;;6.05;2.08;;;22.90;47.40;;;;;;6085560;23;20425;-62
2023/01/05 11:11:15;;;;;;;4.93;2.00;;;22.90;47.40;;;;;;6086311;23;20022;-61
2023/01/05 11:13:46;;;;;;;5.22;2.38;;;22.90;47.30;;;;;;6086892;23;20022;-62
2023/01/05 11:16:19;;;;;;;4.57;2.28;;;22.90;47.30;;;;;;6085209;23;20018;-61
2023/01/05 11:18:55;;;;;;;4.90;1.98;;;22.90;47.40;;;;;;6085689;23;20018;-62
2023/01/05 11:21:43;;;;;;;4.72;1.80;;;22.90;47.30;;;;;;6036743;23;20135;-63
2023/01/05 11:24:31;;;;;;;8.02;2.20;;;22.90;47.30;;;;;;6088391;23;20313;-61
2023/01/05 11:27:00;;;;;;;8.15;2.22;;;22.90;47.50;;;;;;6085706;23;20014;-61
2023/01/05 11:29:26;;;;;;;4.57;1.70;;;22.90;47.50;;;;;;6083302;23;20076;-62
2023/01/05 11:32:01;;;;;;;7.00;1.95;;;22.90;47.60;;;;;;6083913;23;20015;-64
2023/01/05 11:34:44;;;;;;;4.95;1.98;;;22.90;47.50;;;;;;6086408;23;20427;-63
2023/01/05 11:37:26;;;;;;;4.25;1.77;;;22.90;47.50;;;;;;6084406;23;20021;-61
2023/01/05 11:39:58;;;;;;;4.90;2.30;;;22.90;47.60;;;;;;6086272;23;20034;-62
2023/01/05 11:42:24;;;;;;;6.07;2.03;;;22.90;47.70;;;;;;6060294;23;20069;-62
2023/01/05 11:44:56;;;;;;;5.35;1.95;;;22.80;47.70;;;;;;6087237;23;20022;-61
2023/01/05 11:47:33;;;;;;;4.85;1.73;;;22.90;47.80;;;;;;6083687;23;20022;-62
2023/01/05 11:50:08;;;;;;;6.18;2.15;;;22.90;48.70;;;;;;6086949;23;20030;-61
2023/01/05 11:52:42;;;;;;;4.70;2.13;;;22.90;47.80;;;;;;6084336;23;20527;-61
2023/01/05 11:55:34;;;;;;;4.60;2.10;;;22.90;47.90;;;;;;6086944;23;20017;-62
2023/01/05 11:58:23;;;;;;;4.50;2.00;;;22.90;48.00;;;;;;6085923;23;20102;-62
2023/01/05 12:01:10;;;;;;;6.82;2.30;;;23.00;48.00;;;;;;6086491;23;20057;-62
2023/01/05 12:04:02;;;;;;;10.15;2.20;;;22.90;48.00;;;;;;6084570;23;20041;-61
2023/01/05 12:06:57;;;;;;;6.75;2.22;;;22.90;48.10;;;;;;6085626;23;20061;-62
2023/01/05 12:09:30;;;;;;;4.53;1.80;;;22.90;48.30;;;;;;6086765;23;20085;-61
2023/01/05 12:12:07;;;;;;;7.40;2.10;;;22.90;48.30;;;;;;6081229;23;20101;-61
2023/01/05 12:14:49;;;;;;;6.53;2.13;;;22.90;48.30;;;;;;6083283;23;20703;-61
2023/01/05 12:17:23;;;;;;;5.07;1.90;;;22.90;48.30;;;;;;6057783;23;20018;-61
2023/01/05 12:20:00;;;;;;;13.85;2.30;;;22.90;48.40;;;;;;6084740;23;20043;-62
2023/01/05 12:22:54;;;;;;;6.22;1.80;;;22.90;48.40;;;;;;6082125;23;20686;-62
2023/01/05 12:25:32;;;;;;;6.13;2.13;;;22.90;48.50;;;;;;6086903;23;20078;-62
2023/01/05 12:27:58;;;;;;;9.65;2.15;;;22.90;48.60;;;;;;6083860;23;20025;-61
2023/01/05 12:30:45;;;;;;;7.55;2.10;;;22.90;48.50;;;;;;6060236;23;20018;-62
2023/01/05 12:33:29;;;;;;;7.38;2.10;;;23.00;48.50;;;;;;6085071;23;20018;-64
2023/01/05 12:36:10;;;;;;;5.75;1.85;;;22.90;48.50;;;;;;6083272;23;20023;-62
2023/01/05 12:38:49;;;;;;;4.93;2.08;;;22.90;48.40;;;;;;6085821;23;20014;-62
2023/01/05 12:41:41;;;;;;;4.85;2.00;;;22.90;48.40;;;;;;6086040;23;20018;-64
2023/01/05 12:44:13;;;;;;;5.05;1.80;;;22.90;48.20;;;;;;6085134;23;20063;-61
2023/01/05 12:47:06;;;;;;;5.85;2.33;;;22.90;48.30;;;;;;6084149;23;20025;-61
2023/01/05 12:49:48;;;;;;;7.32;2.40;;;22.90;48.10;;;;;;6086804;23;20065;-62
2023/01/05 12:52:31;;;;;;;5.00;1.90;;;22.90;48.20;;;;;;6084636;23;20121;-61
2023/01/05 12:55:07;;;;;;;8.02;2.30;;;22.90;48.30;;;;;;6086023;23;20089;-63
2023/01/05 12:57:39;;;;;;;7.55;2.40;;;22.90;48.40;;;;;;6085720;23;20078;-61
2023/01/05 13:00:27;;;;;;;7.35;1.80;;;22.90;48.60;;;;;;6061422;23;20326;-62
2023/01/05 13:02:59;;;;;;;11.00;2.55;;;22.90;48.70;;;;;;6084092;23;20015;-61
2023/01/05 13:06:03;;;;;;;7.13;2.20;;;22.90;48.90;;;;;;6086209;23;20014;-62
2023/01/05 13:08:32;;;;;;;7.13;1.90;;;22.90;48.80;;;;;;6085124;23;20395;-62
2023/01/05 13:11:01;;;;;;;6.82;2.20;;;22.90;48.70;;;;;;6086168;23;20025;-61
2023/01/05 13:14:10;;;;;;;4.53;1.98;;;22.90;48.70;;;;;;6084492;23;20457;-62
2023/01/05 13:16:37;;;;;;;4.07;2.10;;;23.00;48.70;;;;;;5998547;23;20027;-63
2023/01/05 13:19:05;;;;;;;4.95;1.70;;;22.90;48.70;;;;;;6069635;23;20022;-63
2023/01/05 13:21:32;;;;;;;6.30;2.15;;;23.00;48.70;;;;;;6087431;23;20383;-62
2023/01/05 13:24:04;;;;;;;7.65;2.25;;;23.00;48.70;;;;;;6087820;23;20014;-63
2023/01/05 13:26:30;;;;;;;6.22;2.10;;;23.00;48.70;;;;;;6087053;23;20113;-63
2023/01/05 13:28:56;;;;;;;4.53;2.10;;;23.00;48.60;;;;;;6085744;23;20105;-62
2023/01/05 13:31:36;;;;;;;6.68;2.40;;;23.00;48.60;;;;;;6085922;23;20392;-61
2023/01/05 13:34:17;;;;;;;5.65;2.05;;;23.00;48.70;;;;;;6086599;23;20042;-61
2023/01/05 13:37:10;;;;;;;4.55;1.80;;;22.90;48.70;;;;;;6085668;23;20800;-61